sensor_id;sensor_type;location;lat;lon;timestamp;P1;durP1;ratioP1;P2;durP2;ratioP2
21170;SDS011;10743;52.160;20.910;2022-09-09T00:00:40;10.50;;;4.82;;
21170;SDS011;10743;52.160;20.910;2022-09-09T00:03:27;10.38;;;5.03;;
21170;SDS011;10743;52.160;20.910;2022-09-09T00:06:09;10.00;;;4.70;;
21170;SDS011;10743;52.160;20.910;2022-09-09T00:11:40;9.10;;;4.88;;
21170;SDS011;10743;52.160;20.910;2022-09-09T00:14:20;10.93;;;4.50;;
21170;SDS011;10743;52.160;20.910;2022-09-09T00:17:02;8.70;;;4.93;;
21170;SDS011;10743;52.160;20.910;2022-09-09T00:19:39;12.10;;;5.30;;
21170;SDS011;10743;52.160;20.910;2022-09-09T00:22:19;10.70;;;4.82;;
21170;SDS011;10743;52.160;20.910;2022-09-09T00:24:51;13.85;;;5.18;;
21170;SDS011;10743;52.160;20.910;2022-09-09T00:27:33;14.10;;;5.28;;
21170;SDS011;10743;52.160;20.910;2022-09-09T00:30:24;11.73;;;5.70;;
21170;SDS011;10743;52.160;20.910;2022-09-09T00:32:59;9.55;;;5.65;;
21170;SDS011;10743;52.160;20.910;2022-09-09T00:35:40;11.63;;;5.65;;
21170;SDS011;10743;52.160;20.910;2022-09-09T00:38:24;14.15;;;5.50;;
21170;SDS011;10743;52.160;20.910;2022-09-09T00:43:53;11.75;;;5.78;;
21170;SDS011;10743;52.160;20.910;2022-09-09T00:46:49;12.48;;;5.72;;
21170;SDS011;10743;52.160;20.910;2022-09-09T00:50:00;12.52;;;6.18;;
21170;SDS011;10743;52.160;20.910;2022-09-09T00:52:46;15.48;;;6.20;;
21170;SDS011;10743;52.160;20.910;2022-09-09T01:01:53;11.55;;;5.95;;
21170;SDS011;10743;52.160;20.910;2022-09-09T01:04:25;12.98;;;6.45;;
21170;SDS011;10743;52.160;20.910;2022-09-09T01:07:14;15.80;;;6.28;;
21170;SDS011;10743;52.160;20.910;2022-09-09T01:09:55;11.38;;;6.22;;
21170;SDS011;10743;52.160;20.910;2022-09-09T01:12:28;12.55;;;5.88;;
21170;SDS011;10743;52.160;20.910;2022-09-09T01:15:11;12.82;;;6.97;;
21170;SDS011;10743;52.160;20.910;2022-09-09T01:17:53;15.18;;;6.53;;
21170;SDS011;10743;52.160;20.910;2022-09-09T01:20:44;10.32;;;6.30;;
21170;SDS011;10743;52.160;20.910;2022-09-09T01:23:36;12.65;;;6.88;;
21170;SDS011;10743;52.160;20.910;2022-09-09T01:26:29;16.05;;;6.63;;
21170;SDS011;10743;52.160;20.910;2022-09-09T01:29:10;19.33;;;6.55;;
21170;SDS011;10743;52.160;20.910;2022-09-09T01:31:42;17.02;;;6.55;;
21170;SDS011;10743;52.160;20.910;2022-09-09T01:34:41;17.67;;;6.68;;
21170;SDS011;10743;52.160;20.910;2022-09-09T01:37:09;12.30;;;7.07;;
21170;SDS011;10743;52.160;20.910;2022-09-09T01:39:40;12.93;;;6.60;;
21170;SDS011;10743;52.160;20.910;2022-09-09T01:42:13;13.48;;;6.30;;
21170;SDS011;10743;52.160;20.910;2022-09-09T01:44:43;17.25;;;6.68;;
21170;SDS011;10743;52.160;20.910;2022-09-09T01:47:11;11.63;;;6.72;;
21170;SDS011;10743;52.160;20.910;2022-09-09T01:50:03;14.45;;;7.25;;
21170;SDS011;10743;52.160;20.910;2022-09-09T01:52:31;12.13;;;6.70;;
21170;SDS011;10743;52.160;20.910;2022-09-09T01:55:04;12.30;;;6.60;;
21170;SDS011;10743;52.160;20.910;2022-09-09T01:57:47;16.50;;;7.13;;
21170;SDS011;10743;52.160;20.910;2022-09-09T02:00:27;16.75;;;7.63;;
21170;SDS011;10743;52.160;20.910;2022-09-09T02:03:06;12.50;;;7.10;;
21170;SDS011;10743;52.160;20.910;2022-09-09T02:06:19;10.43;;;6.38;;
21170;SDS011;10743;52.160;20.910;2022-09-09T02:08:48;12.50;;;6.60;;
21170;SDS011;10743;52.160;20.910;2022-09-09T02:11:18;12.23;;;6.47;;
21170;SDS011;10743;52.160;20.910;2022-09-09T02:14:01;12.68;;;7.00;;
21170;SDS011;10743;52.160;20.910;2022-09-09T02:16:47;13.02;;;6.68;;
21170;SDS011;10743;52.160;20.910;2022-09-09T02:19:34;12.25;;;6.68;;
21170;SDS011;10743;52.160;20.910;2022-09-09T02:22:22;12.88;;;6.80;;
21170;SDS011;10743;52.160;20.910;2022-09-09T02:24:53;15.63;;;6.75;;
21170;SDS011;10743;52.160;20.910;2022-09-09T02:27:27;12.93;;;7.25;;
21170;SDS011;10743;52.160;20.910;2022-09-09T02:29:55;14.23;;;6.90;;
21170;SDS011;10743;52.160;20.910;2022-09-09T02:32:36;12.13;;;7.07;;
21170;SDS011;10743;52.160;20.910;2022-09-09T02:35:10;13.75;;;6.95;;
21170;SDS011;10743;52.160;20.910;2022-09-09T02:37:44;14.98;;;6.88;;
21170;SDS011;10743;52.160;20.910;2022-09-09T02:40:15;14.68;;;7.30;;
21170;SDS011;10743;52.160;20.910;2022-09-09T02:42:47;16.52;;;7.47;;
21170;SDS011;10743;52.160;20.910;2022-09-09T02:45:18;13.77;;;7.15;;
21170;SDS011;10743;52.160;20.910;2022-09-09T02:47:55;13.50;;;6.80;;
21170;SDS011;10743;52.160;20.910;2022-09-09T02:51:03;13.40;;;7.50;;
21170;SDS011;10743;52.160;20.910;2022-09-09T02:53:43;12.77;;;7.03;;
21170;SDS011;10743;52.160;20.910;2022-09-09T02:56:23;14.60;;;7.40;;
21170;SDS011;10743;52.160;20.910;2022-09-09T02:58:54;13.68;;;7.03;;
21170;SDS011;10743;52.160;20.910;2022-09-09T03:01:23;14.45;;;6.50;;
21170;SDS011;10743;52.160;20.910;2022-09-09T03:03:50;12.63;;;6.97;;
21170;SDS011;10743;52.160;20.910;2022-09-09T03:06:17;13.88;;;7.00;;
21170;SDS011;10743;52.160;20.910;2022-09-09T03:08:50;14.05;;;6.70;;
21170;SDS011;10743;52.160;20.910;2022-09-09T03:11:23;15.55;;;6.95;;
21170;SDS011;10743;52.160;20.910;2022-09-09T03:13:50;11.82;;;6.50;;
21170;SDS011;10743;52.160;20.910;2022-09-09T03:16:19;12.00;;;6.63;;
21170;SDS011;10743;52.160;20.910;2022-09-09T03:18:49;14.40;;;6.72;;
21170;SDS011;10743;52.160;20.910;2022-09-09T03:21:19;13.32;;;6.60;;
21170;SDS011;10743;52.160;20.910;2022-09-09T03:23:48;12.27;;;6.55;;
21170;SDS011;10743;52.160;20.910;2022-09-09T03:26:15;12.13;;;6.50;;
21170;SDS011;10743;52.160;20.910;2022-09-09T03:28:44;14.32;;;6.65;;
21170;SDS011;10743;52.160;20.910;2022-09-09T03:31:15;10.68;;;6.20;;
21170;SDS011;10743;52.160;20.910;2022-09-09T03:33:43;13.98;;;6.57;;
21170;SDS011;10743;52.160;20.910;2022-09-09T03:36:13;10.90;;;6.45;;
21170;SDS011;10743;52.160;20.910;2022-09-09T03:38:41;13.13;;;6.70;;
21170;SDS011;10743;52.160;20.910;2022-09-09T03:41:11;11.75;;;6.32;;
21170;SDS011;10743;52.160;20.910;2022-09-09T03:43:39;13.77;;;6.22;;
21170;SDS011;10743;52.160;20.910;2022-09-09T03:46:06;9.48;;;6.05;;
21170;SDS011;10743;52.160;20.910;2022-09-09T03:48:33;12.25;;;6.10;;
21170;SDS011;10743;52.160;20.910;2022-09-09T03:51:00;12.40;;;5.85;;
21170;SDS011;10743;52.160;20.910;2022-09-09T03:53:29;12.30;;;6.30;;
21170;SDS011;10743;52.160;20.910;2022-09-09T03:55:57;9.65;;;6.05;;
21170;SDS011;10743;52.160;20.910;2022-09-09T03:58:27;9.63;;;6.05;;
21170;SDS011;10743;52.160;20.910;2022-09-09T04:01:05;11.07;;;6.30;;
21170;SDS011;10743;52.160;20.910;2022-09-09T04:03:37;10.88;;;5.78;;
21170;SDS011;10743;52.160;20.910;2022-09-09T04:06:04;12.65;;;6.85;;
21170;SDS011;10743;52.160;20.910;2022-09-09T04:08:33;10.48;;;6.55;;
21170;SDS011;10743;52.160;20.910;2022-09-09T04:11:02;13.93;;;6.18;;
21170;SDS011;10743;52.160;20.910;2022-09-09T04:13:34;10.30;;;5.57;;
21170;SDS011;10743;52.160;20.910;2022-09-09T04:16:04;12.80;;;6.15;;
21170;SDS011;10743;52.160;20.910;2022-09-09T04:18:34;12.10;;;6.22;;
21170;SDS011;10743;52.160;20.910;2022-09-09T04:21:04;10.80;;;5.35;;
21170;SDS011;10743;52.160;20.910;2022-09-09T04:23:33;11.98;;;5.72;;
21170;SDS011;10743;52.160;20.910;2022-09-09T04:26:04;10.48;;;5.88;;
21170;SDS011;10743;52.160;20.910;2022-09-09T04:28:33;12.43;;;5.55;;
21170;SDS011;10743;52.160;20.910;2022-09-09T04:31:16;10.88;;;6.03;;
21170;SDS011;10743;52.160;20.910;2022-09-09T04:33:48;10.68;;;5.80;;
21170;SDS011;10743;52.160;20.910;2022-09-09T04:36:17;9.18;;;5.05;;
21170;SDS011;10743;52.160;20.910;2022-09-09T04:38:47;10.55;;;5.82;;
21170;SDS011;10743;52.160;20.910;2022-09-09T04:41:16;10.43;;;5.95;;
21170;SDS011;10743;52.160;20.910;2022-09-09T04:43:46;9.32;;;5.70;;
21170;SDS011;10743;52.160;20.910;2022-09-09T04:46:15;9.57;;;5.45;;
21170;SDS011;10743;52.160;20.910;2022-09-09T04:48:47;12.13;;;5.65;;
21170;SDS011;10743;52.160;20.910;2022-09-09T04:51:16;9.15;;;5.28;;
21170;SDS011;10743;52.160;20.910;2022-09-09T04:53:45;8.27;;;5.10;;
21170;SDS011;10743;52.160;20.910;2022-09-09T04:56:18;10.82;;;6.03;;
21170;SDS011;10743;52.160;20.910;2022-09-09T04:58:56;8.43;;;5.32;;
21170;SDS011;10743;52.160;20.910;2022-09-09T05:01:34;7.28;;;4.95;;
21170;SDS011;10743;52.160;20.910;2022-09-09T05:04:04;8.00;;;5.20;;
21170;SDS011;10743;52.160;20.910;2022-09-09T05:06:32;10.63;;;5.15;;
21170;SDS011;10743;52.160;20.910;2022-09-09T05:09:00;9.30;;;5.07;;
21170;SDS011;10743;52.160;20.910;2022-09-09T05:11:29;9.68;;;5.82;;
21170;SDS011;10743;52.160;20.910;2022-09-09T05:14:21;8.95;;;5.50;;
21170;SDS011;10743;52.160;20.910;2022-09-09T05:16:49;7.65;;;5.32;;
21170;SDS011;10743;52.160;20.910;2022-09-09T05:19:16;9.73;;;5.03;;
21170;SDS011;10743;52.160;20.910;2022-09-09T05:21:50;7.45;;;4.75;;
21170;SDS011;10743;52.160;20.910;2022-09-09T05:24:22;7.82;;;4.80;;
21170;SDS011;10743;52.160;20.910;2022-09-09T05:26:52;8.85;;;5.05;;
21170;SDS011;10743;52.160;20.910;2022-09-09T05:29:19;10.90;;;5.28;;
21170;SDS011;10743;52.160;20.910;2022-09-09T05:31:47;12.43;;;5.20;;
21170;SDS011;10743;52.160;20.910;2022-09-09T05:34:18;9.40;;;5.13;;
21170;SDS011;10743;52.160;20.910;2022-09-09T05:36:48;9.32;;;5.18;;
21170;SDS011;10743;52.160;20.910;2022-09-09T05:39:15;7.35;;;4.53;;
21170;SDS011;10743;52.160;20.910;2022-09-09T05:41:42;9.38;;;5.22;;
21170;SDS011;10743;52.160;20.910;2022-09-09T05:44:09;9.10;;;4.80;;
21170;SDS011;10743;52.160;20.910;2022-09-09T05:46:38;7.88;;;4.55;;
21170;SDS011;10743;52.160;20.910;2022-09-09T05:49:05;6.85;;;4.60;;
21170;SDS011;10743;52.160;20.910;2022-09-09T05:51:33;8.63;;;5.05;;
21170;SDS011;10743;52.160;20.910;2022-09-09T05:54:08;7.63;;;5.00;;
21170;SDS011;10743;52.160;20.910;2022-09-09T05:56:40;8.38;;;5.07;;
21170;SDS011;10743;52.160;20.910;2022-09-09T05:59:07;8.43;;;4.88;;
21170;SDS011;10743;52.160;20.910;2022-09-09T06:01:35;8.98;;;4.82;;
21170;SDS011;10743;52.160;20.910;2022-09-09T06:04:17;10.73;;;5.72;;
21170;SDS011;10743;52.160;20.910;2022-09-09T06:06:44;7.82;;;5.05;;
21170;SDS011;10743;52.160;20.910;2022-09-09T06:09:14;8.95;;;4.90;;
21170;SDS011;10743;52.160;20.910;2022-09-09T06:11:42;8.02;;;5.00;;
21170;SDS011;10743;52.160;20.910;2022-09-09T06:14:11;6.55;;;4.80;;
21170;SDS011;10743;52.160;20.910;2022-09-09T06:16:39;8.20;;;4.97;;
21170;SDS011;10743;52.160;20.910;2022-09-09T06:19:15;8.27;;;4.80;;
21170;SDS011;10743;52.160;20.910;2022-09-09T06:21:42;11.48;;;5.05;;
21170;SDS011;10743;52.160;20.910;2022-09-09T06:24:12;8.98;;;5.00;;
21170;SDS011;10743;52.160;20.910;2022-09-09T06:26:40;6.82;;;4.80;;
21170;SDS011;10743;52.160;20.910;2022-09-09T06:29:10;6.45;;;4.57;;
21170;SDS011;10743;52.160;20.910;2022-09-09T06:31:38;8.68;;;5.15;;
21170;SDS011;10743;52.160;20.910;2022-09-09T06:34:12;7.43;;;5.05;;
21170;SDS011;10743;52.160;20.910;2022-09-09T06:36:43;6.60;;;4.72;;
21170;SDS011;10743;52.160;20.910;2022-09-09T06:39:12;9.77;;;4.88;;
21170;SDS011;10743;52.160;20.910;2022-09-09T06:41:41;9.75;;;5.30;;
21170;SDS011;10743;52.160;20.910;2022-09-09T06:44:29;7.78;;;4.90;;
21170;SDS011;10743;52.160;20.910;2022-09-09T06:47:01;6.82;;;4.68;;
21170;SDS011;10743;52.160;20.910;2022-09-09T06:49:28;7.45;;;5.10;;
21170;SDS011;10743;52.160;20.910;2022-09-09T06:51:55;8.48;;;5.25;;
21170;SDS011;10743;52.160;20.910;2022-09-09T06:54:22;8.05;;;5.55;;
21170;SDS011;10743;52.160;20.910;2022-09-09T06:56:52;8.50;;;5.07;;
21170;SDS011;10743;52.160;20.910;2022-09-09T06:59:22;9.07;;;5.22;;
21170;SDS011;10743;52.160;20.910;2022-09-09T07:01:52;8.98;;;5.90;;
21170;SDS011;10743;52.160;20.910;2022-09-09T07:04:22;8.70;;;5.18;;
21170;SDS011;10743;52.160;20.910;2022-09-09T07:06:49;10.52;;;6.10;;
21170;SDS011;10743;52.160;20.910;2022-09-09T07:09:23;11.90;;;6.00;;
21170;SDS011;10743;52.160;20.910;2022-09-09T07:11:52;9.20;;;5.75;;
21170;SDS011;10743;52.160;20.910;2022-09-09T07:14:21;10.77;;;6.18;;
21170;SDS011;10743;52.160;20.910;2022-09-09T07:16:55;8.60;;;5.70;;
21170;SDS011;10743;52.160;20.910;2022-09-09T07:19:26;9.63;;;5.82;;
21170;SDS011;10743;52.160;20.910;2022-09-09T07:21:54;12.65;;;6.53;;
21170;SDS011;10743;52.160;20.910;2022-09-09T07:24:23;9.63;;;6.00;;
21170;SDS011;10743;52.160;20.910;2022-09-09T07:26:51;10.63;;;6.30;;
21170;SDS011;10743;52.160;20.910;2022-09-09T07:29:19;10.40;;;6.50;;
21170;SDS011;10743;52.160;20.910;2022-09-09T07:31:48;10.50;;;6.43;;
21170;SDS011;10743;52.160;20.910;2022-09-09T07:34:20;11.18;;;6.30;;
21170;SDS011;10743;52.160;20.910;2022-09-09T07:36:48;10.82;;;6.07;;
21170;SDS011;10743;52.160;20.910;2022-09-09T07:39:16;9.98;;;6.03;;
21170;SDS011;10743;52.160;20.910;2022-09-09T07:41:54;11.48;;;6.70;;
21170;SDS011;10743;52.160;20.910;2022-09-09T07:44:23;12.07;;;6.72;;
21170;SDS011;10743;52.160;20.910;2022-09-09T07:47:02;13.02;;;6.63;;
21170;SDS011;10743;52.160;20.910;2022-09-09T07:49:35;9.88;;;6.70;;
21170;SDS011;10743;52.160;20.910;2022-09-09T07:52:03;11.23;;;7.05;;
21170;SDS011;10743;52.160;20.910;2022-09-09T07:54:31;12.15;;;6.85;;
21170;SDS011;10743;52.160;20.910;2022-09-09T07:57:01;15.00;;;7.22;;
21170;SDS011;10743;52.160;20.910;2022-09-09T07:59:32;10.15;;;6.38;;
21170;SDS011;10743;52.160;20.910;2022-09-09T08:02:00;12.18;;;7.68;;
21170;SDS011;10743;52.160;20.910;2022-09-09T08:04:30;12.88;;;7.18;;
21170;SDS011;10743;52.160;20.910;2022-09-09T08:06:58;13.05;;;8.07;;
21170;SDS011;10743;52.160;20.910;2022-09-09T08:09:35;12.75;;;7.43;;
21170;SDS011;10743;52.160;20.910;2022-09-09T08:12:11;13.75;;;7.70;;
21170;SDS011;10743;52.160;20.910;2022-09-09T08:14:39;11.48;;;7.25;;
21170;SDS011;10743;52.160;20.910;2022-09-09T08:17:06;15.63;;;7.50;;
21170;SDS011;10743;52.160;20.910;2022-09-09T08:19:33;13.25;;;7.88;;
21170;SDS011;10743;52.160;20.910;2022-09-09T08:22:06;14.23;;;7.82;;
21170;SDS011;10743;52.160;20.910;2022-09-09T08:24:35;13.93;;;8.30;;
21170;SDS011;10743;52.160;20.910;2022-09-09T08:27:02;16.60;;;8.23;;
21170;SDS011;10743;52.160;20.910;2022-09-09T08:29:29;14.63;;;8.02;;
21170;SDS011;10743;52.160;20.910;2022-09-09T08:31:57;13.15;;;8.38;;
21170;SDS011;10743;52.160;20.910;2022-09-09T08:34:26;15.13;;;8.23;;
21170;SDS011;10743;52.160;20.910;2022-09-09T08:36:56;13.02;;;8.05;;
21170;SDS011;10743;52.160;20.910;2022-09-09T08:39:30;15.25;;;8.55;;
21170;SDS011;10743;52.160;20.910;2022-09-09T08:50:22;17.27;;;9.88;;
21170;SDS011;10743;52.160;20.910;2022-09-09T08:53:04;15.15;;;8.35;;
21170;SDS011;10743;52.160;20.910;2022-09-09T08:55:59;17.77;;;9.75;;
21170;SDS011;10743;52.160;20.910;2022-09-09T09:07:17;19.83;;;10.30;;
21170;SDS011;10743;52.160;20.910;2022-09-09T09:13:21;17.60;;;10.05;;
21170;SDS011;10743;52.160;20.910;2022-09-09T09:16:25;19.75;;;10.68;;
21170;SDS011;10743;52.160;20.910;2022-09-09T09:19:00;19.98;;;10.25;;
21170;SDS011;10743;52.160;20.910;2022-09-09T09:22:14;21.98;;;11.68;;
21170;SDS011;10743;52.160;20.910;2022-09-09T09:24:42;25.60;;;11.75;;
21170;SDS011;10743;52.160;20.910;2022-09-09T09:27:31;25.77;;;11.43;;
21170;SDS011;10743;52.160;20.910;2022-09-09T09:30:31;20.08;;;10.32;;
21170;SDS011;10743;52.160;20.910;2022-09-09T09:33:32;22.33;;;11.38;;
21170;SDS011;10743;52.160;20.910;2022-09-09T09:36:12;21.58;;;11.18;;
21170;SDS011;10743;52.160;20.910;2022-09-09T09:38:56;25.67;;;12.07;;
21170;SDS011;10743;52.160;20.910;2022-09-09T09:41:48;24.92;;;11.18;;
21170;SDS011;10743;52.160;20.910;2022-09-09T09:44:26;22.23;;;10.52;;
21170;SDS011;10743;52.160;20.910;2022-09-09T09:47:12;22.13;;;11.40;;
21170;SDS011;10743;52.160;20.910;2022-09-09T09:49:55;23.35;;;11.48;;
21170;SDS011;10743;52.160;20.910;2022-09-09T09:52:34;24.92;;;11.68;;
21170;SDS011;10743;52.160;20.910;2022-09-09T09:55:03;23.40;;;11.77;;
21170;SDS011;10743;52.160;20.910;2022-09-09T09:57:40;20.70;;;11.48;;
21170;SDS011;10743;52.160;20.910;2022-09-09T10:02:52;24.98;;;12.68;;
21170;SDS011;10743;52.160;20.910;2022-09-09T10:10:38;24.15;;;12.25;;
21170;SDS011;10743;52.160;20.910;2022-09-09T10:19:06;27.48;;;12.80;;
21170;SDS011;10743;52.160;20.910;2022-09-09T10:24:39;27.48;;;13.30;;
21170;SDS011;10743;52.160;20.910;2022-09-09T10:27:56;24.95;;;12.38;;
21170;SDS011;10743;52.160;20.910;2022-09-09T10:30:49;29.48;;;14.15;;
21170;SDS011;10743;52.160;20.910;2022-09-09T10:36:46;28.55;;;13.13;;
21170;SDS011;10743;52.160;20.910;2022-09-09T10:39:25;24.88;;;13.15;;
21170;SDS011;10743;52.160;20.910;2022-09-09T10:42:09;31.17;;;14.00;;
21170;SDS011;10743;52.160;20.910;2022-09-09T10:50:14;27.10;;;13.40;;
21170;SDS011;10743;52.160;20.910;2022-09-09T10:55:55;28.42;;;13.60;;
21170;SDS011;10743;52.160;20.910;2022-09-09T10:58:30;27.17;;;14.13;;
21170;SDS011;10743;52.160;20.910;2022-09-09T11:01:10;31.40;;;14.40;;
21170;SDS011;10743;52.160;20.910;2022-09-09T11:03:51;30.13;;;13.85;;
21170;SDS011;10743;52.160;20.910;2022-09-09T11:06:27;27.63;;;15.35;;
21170;SDS011;10743;52.160;20.910;2022-09-09T11:09:01;32.08;;;14.95;;
21170;SDS011;10743;52.160;20.910;2022-09-09T11:11:39;32.13;;;14.68;;
21170;SDS011;10743;52.160;20.910;2022-09-09T11:14:19;27.52;;;14.15;;
21170;SDS011;10743;52.160;20.910;2022-09-09T11:17:10;30.63;;;14.00;;
21170;SDS011;10743;52.160;20.910;2022-09-09T11:19:42;34.70;;;15.02;;
21170;SDS011;10743;52.160;20.910;2022-09-09T11:25:22;31.42;;;15.20;;
21170;SDS011;10743;52.160;20.910;2022-09-09T11:27:53;30.77;;;14.73;;
21170;SDS011;10743;52.160;20.910;2022-09-09T11:34:02;30.95;;;15.32;;
21170;SDS011;10743;52.160;20.910;2022-09-09T11:37:02;28.65;;;14.27;;
21170;SDS011;10743;52.160;20.910;2022-09-09T11:39:44;28.85;;;14.00;;
21170;SDS011;10743;52.160;20.910;2022-09-09T11:42:33;34.05;;;15.20;;
21170;SDS011;10743;52.160;20.910;2022-09-09T11:45:20;36.28;;;15.20;;
21170;SDS011;10743;52.160;20.910;2022-09-09T11:47:52;30.08;;;14.93;;
21170;SDS011;10743;52.160;20.910;2022-09-09T11:52:49;31.02;;;15.45;;
21170;SDS011;10743;52.160;20.910;2022-09-09T11:55:27;30.20;;;15.48;;
21170;SDS011;10743;52.160;20.910;2022-09-09T11:58:00;33.95;;;16.17;;
21170;SDS011;10743;52.160;20.910;2022-09-09T12:00:41;37.85;;;16.88;;
21170;SDS011;10743;52.160;20.910;2022-09-09T12:03:33;36.00;;;16.35;;
21170;SDS011;10743;52.160;20.910;2022-09-09T12:09:05;38.05;;;17.27;;
21170;SDS011;10743;52.160;20.910;2022-09-09T12:11:46;36.70;;;16.88;;
21170;SDS011;10743;52.160;20.910;2022-09-09T12:14:23;36.42;;;17.05;;
21170;SDS011;10743;52.160;20.910;2022-09-09T12:19:42;36.95;;;16.95;;
21170;SDS011;10743;52.160;20.910;2022-09-09T12:22:13;42.50;;;18.02;;
21170;SDS011;10743;52.160;20.910;2022-09-09T12:28:02;39.13;;;17.02;;
21170;SDS011;10743;52.160;20.910;2022-09-09T12:33:22;42.50;;;17.67;;
21170;SDS011;10743;52.160;20.910;2022-09-09T12:35:52;38.85;;;17.13;;
21170;SDS011;10743;52.160;20.910;2022-09-09T12:38:34;41.28;;;17.95;;
21170;SDS011;10743;52.160;20.910;2022-09-09T12:41:04;43.70;;;18.90;;
21170;SDS011;10743;52.160;20.910;2022-09-09T12:43:31;39.50;;;17.75;;
21170;SDS011;10743;52.160;20.910;2022-09-09T12:46:02;40.65;;;18.40;;
21170;SDS011;10743;52.160;20.910;2022-09-09T12:48:38;41.00;;;18.75;;
21170;SDS011;10743;52.160;20.910;2022-09-09T12:51:18;40.30;;;18.48;;
21170;SDS011;10743;52.160;20.910;2022-09-09T12:53:58;40.55;;;17.67;;
21170;SDS011;10743;52.160;20.910;2022-09-09T12:56:27;39.80;;;17.38;;
21170;SDS011;10743;52.160;20.910;2022-09-09T12:58:57;39.33;;;17.80;;
21170;SDS011;10743;52.160;20.910;2022-09-09T13:01:29;38.70;;;17.50;;
21170;SDS011;10743;52.160;20.910;2022-09-09T13:03:59;35.47;;;17.67;;
21170;SDS011;10743;52.160;20.910;2022-09-09T13:06:27;38.72;;;17.90;;
21170;SDS011;10743;52.160;20.910;2022-09-09T13:09:00;40.15;;;18.98;;
21170;SDS011;10743;52.160;20.910;2022-09-09T13:14:04;42.40;;;19.90;;
21170;SDS011;10743;52.160;20.910;2022-09-09T13:16:33;41.95;;;18.75;;
21170;SDS011;10743;52.160;20.910;2022-09-09T13:19:08;39.88;;;18.15;;
21170;SDS011;10743;52.160;20.910;2022-09-09T13:21:41;42.55;;;17.60;;
21170;SDS011;10743;52.160;20.910;2022-09-09T13:24:31;38.47;;;18.05;;
21170;SDS011;10743;52.160;20.910;2022-09-09T13:27:04;44.50;;;19.17;;
21170;SDS011;10743;52.160;20.910;2022-09-09T13:29:57;43.78;;;18.27;;
21170;SDS011;10743;52.160;20.910;2022-09-09T13:32:24;41.47;;;19.42;;
21170;SDS011;10743;52.160;20.910;2022-09-09T13:34:54;40.28;;;19.08;;
21170;SDS011;10743;52.160;20.910;2022-09-09T13:37:28;46.08;;;19.83;;
21170;SDS011;10743;52.160;20.910;2022-09-09T13:40:04;42.08;;;18.85;;
21170;SDS011;10743;52.160;20.910;2022-09-09T13:42:34;41.63;;;17.48;;
21170;SDS011;10743;52.160;20.910;2022-09-09T13:45:14;40.30;;;17.88;;
21170;SDS011;10743;52.160;20.910;2022-09-09T13:47:48;44.90;;;19.25;;
21170;SDS011;10743;52.160;20.910;2022-09-09T13:50:19;42.83;;;19.38;;
21170;SDS011;10743;52.160;20.910;2022-09-09T13:52:51;37.13;;;17.60;;
21170;SDS011;10743;52.160;20.910;2022-09-09T13:55:22;47.13;;;19.38;;
21170;SDS011;10743;52.160;20.910;2022-09-09T14:00:29;43.92;;;18.23;;
21170;SDS011;10743;52.160;20.910;2022-09-09T14:02:58;40.30;;;17.55;;
21170;SDS011;10743;52.160;20.910;2022-09-09T14:05:32;37.65;;;16.75;;
21170;SDS011;10743;52.160;20.910;2022-09-09T14:08:00;39.17;;;16.30;;
21170;SDS011;10743;52.160;20.910;2022-09-09T14:10:29;37.95;;;17.08;;
21170;SDS011;10743;52.160;20.910;2022-09-09T14:12:56;45.55;;;17.40;;
21170;SDS011;10743;52.160;20.910;2022-09-09T14:15:23;40.20;;;17.65;;
21170;SDS011;10743;52.160;20.910;2022-09-09T14:17:50;37.00;;;16.98;;
21170;SDS011;10743;52.160;20.910;2022-09-09T14:20:18;36.55;;;16.35;;
21170;SDS011;10743;52.160;20.910;2022-09-09T14:22:52;38.40;;;17.13;;
21170;SDS011;10743;52.160;20.910;2022-09-09T14:25:19;38.88;;;16.10;;
21170;SDS011;10743;52.160;20.910;2022-09-09T14:27:46;38.22;;;17.08;;
21170;SDS011;10743;52.160;20.910;2022-09-09T14:30:13;40.08;;;17.45;;
21170;SDS011;10743;52.160;20.910;2022-09-09T14:32:40;40.88;;;18.45;;
21170;SDS011;10743;52.160;20.910;2022-09-09T14:35:07;39.35;;;18.35;;
21170;SDS011;10743;52.160;20.910;2022-09-09T14:37:34;33.97;;;15.98;;
21170;SDS011;10743;52.160;20.910;2022-09-09T14:40:01;36.03;;;15.77;;
21170;SDS011;10743;52.160;20.910;2022-09-09T14:42:29;34.45;;;16.52;;
21170;SDS011;10743;52.160;20.910;2022-09-09T14:44:56;36.72;;;16.33;;
21170;SDS011;10743;52.160;20.910;2022-09-09T14:47:23;40.75;;;16.95;;
21170;SDS011;10743;52.160;20.910;2022-09-09T14:49:50;35.63;;;15.90;;
21170;SDS011;10743;52.160;20.910;2022-09-09T14:52:17;32.70;;;15.43;;
21170;SDS011;10743;52.160;20.910;2022-09-09T14:54:44;33.97;;;16.10;;
21170;SDS011;10743;52.160;20.910;2022-09-09T14:57:11;40.00;;;18.08;;
21170;SDS011;10743;52.160;20.910;2022-09-09T14:59:37;38.03;;;17.67;;
21170;SDS011;10743;52.160;20.910;2022-09-09T15:02:04;37.42;;;16.95;;
21170;SDS011;10743;52.160;20.910;2022-09-09T15:04:32;35.25;;;16.65;;
21170;SDS011;10743;52.160;20.910;2022-09-09T15:06:59;37.10;;;16.20;;
21170;SDS011;10743;52.160;20.910;2022-09-09T15:09:26;37.67;;;16.10;;
21170;SDS011;10743;52.160;20.910;2022-09-09T15:11:53;38.17;;;16.42;;
21170;SDS011;10743;52.160;20.910;2022-09-09T15:14:20;37.28;;;16.30;;
21170;SDS011;10743;52.160;20.910;2022-09-09T15:16:50;36.38;;;15.65;;
21170;SDS011;10743;52.160;20.910;2022-09-09T15:19:17;37.33;;;17.38;;
21170;SDS011;10743;52.160;20.910;2022-09-09T15:21:44;39.08;;;17.83;;
21170;SDS011;10743;52.160;20.910;2022-09-09T15:24:11;41.40;;;18.08;;
21170;SDS011;10743;52.160;20.910;2022-09-09T15:26:39;35.60;;;16.65;;
21170;SDS011;10743;52.160;20.910;2022-09-09T15:29:07;35.15;;;16.00;;
21170;SDS011;10743;52.160;20.910;2022-09-09T15:31:35;34.95;;;16.40;;
21170;SDS011;10743;52.160;20.910;2022-09-09T15:34:06;35.97;;;17.20;;
21170;SDS011;10743;52.160;20.910;2022-09-09T15:39:16;34.80;;;15.20;;
21170;SDS011;10743;52.160;20.910;2022-09-09T15:41:47;30.90;;;14.80;;
21170;SDS011;10743;52.160;20.910;2022-09-09T15:44:14;29.08;;;15.55;;
21170;SDS011;10743;52.160;20.910;2022-09-09T15:46:43;33.90;;;14.68;;
21170;SDS011;10743;52.160;20.910;2022-09-09T15:49:20;32.08;;;15.40;;
21170;SDS011;10743;52.160;20.910;2022-09-09T15:51:53;30.27;;;15.75;;
21170;SDS011;10743;52.160;20.910;2022-09-09T15:54:24;30.75;;;14.98;;
21170;SDS011;10743;52.160;20.910;2022-09-09T15:56:53;32.03;;;13.90;;
21170;SDS011;10743;52.160;20.910;2022-09-09T15:59:26;30.17;;;15.05;;
21170;SDS011;10743;52.160;20.910;2022-09-09T16:01:55;30.23;;;14.38;;
21170;SDS011;10743;52.160;20.910;2022-09-09T16:04:23;33.90;;;15.65;;
21170;SDS011;10743;52.160;20.910;2022-09-09T16:06:55;37.10;;;16.70;;
21170;SDS011;10743;52.160;20.910;2022-09-09T16:09:25;33.60;;;17.55;;
21170;SDS011;10743;52.160;20.910;2022-09-09T16:11:58;35.90;;;17.20;;
21170;SDS011;10743;52.160;20.910;2022-09-09T16:14:29;34.78;;;16.20;;
21170;SDS011;10743;52.160;20.910;2022-09-09T16:17:00;41.80;;;16.92;;
21170;SDS011;10743;52.160;20.910;2022-09-09T16:19:28;32.20;;;16.98;;
21170;SDS011;10743;52.160;20.910;2022-09-09T16:21:55;37.15;;;16.77;;
21170;SDS011;10743;52.160;20.910;2022-09-09T16:24:22;34.22;;;16.50;;
21170;SDS011;10743;52.160;20.910;2022-09-09T16:26:51;41.17;;;18.58;;